Time;durP1;ratioP1;P1;durP2;ratioP2;P2;SDS_P1;SDS_P2;PMS_P1;PMS_P2;Temp;Humidity;BMP_temperature;BMP_pressure;BME280_temperature;BME280_humidity;BME280_pressure;Samples;Min_cycle;Max_cycle;Signal;HPM_P1;HPM_P2
2022/06/12 00:01:37;;;;;;;5.23;3.97;;;;;;;18.62;100.00;99597.38;5102932;27;20209;-80
2022/06/12 00:04:07;;;;;;;6.07;4.10;;;;;;;18.66;100.00;99598.84;5136755;27;20217;-79
2022/06/12 00:06:36;;;;;;;4.93;4.20;;;;;;;18.75;100.00;99587.28;5132423;27;20197;-80
2022/06/12 00:09:07;;;;;;;4.97;3.80;;;;;;;18.67;100.00;99585.28;5131094;27;20250;-80
2022/06/12 00:11:35;;;;;;;6.33;3.80;;;;;;;18.65;100.00;99591.78;5126867;27;20195;-80
2022/06/12 00:14:06;;;;;;;5.00;3.47;;;;;;;18.60;100.00;99597.53;5134819;27;20205;-80
2022/06/12 00:16:36;;;;;;;6.43;4.07;;;;;;;18.61;100.00;99601.91;5136050;27;20198;-80
2022/06/12 00:19:06;;;;;;;4.90;4.00;;;;;;;18.59;100.00;99595.81;5130792;27;20195;-80
2022/06/12 00:21:35;;;;;;;6.27;4.20;;;;;;;18.62;100.00;99592.84;5135860;27;20706;-80
2022/06/12 00:24:09;;;;;;;4.27;3.87;;;;;;;18.67;100.00;99597.84;5132179;27;20204;-81
2022/06/12 00:26:41;;;;;;;6.30;4.00;;;;;;;18.68;100.00;99595.03;5135912;27;20206;-80
2022/06/12 00:29:16;;;;;;;4.63;4.00;;;;;;;18.67;100.00;99592.50;5131225;27;20190;-80
2022/06/12 00:31:51;;;;;;;5.03;3.90;;;;;;;18.56;100.00;99596.13;5131706;27;20242;-80
2022/06/12 00:34:23;;;;;;;8.43;4.17;;;;;;;18.37;100.00;99596.91;5129157;27;20190;-80
2022/06/12 00:36:53;;;;;;;4.97;4.40;;;;;;;18.28;100.00;99595.06;5131131;27;20220;-80
2022/06/12 00:39:24;;;;;;;6.33;4.13;;;;;;;18.12;100.00;99598.22;5086278;28;20192;-80
2022/06/12 00:41:56;;;;;;;5.20;4.10;;;;;;;18.01;100.00;99592.97;5088863;28;20196;-80
2022/06/12 00:44:29;;;;;;;4.53;4.13;;;;;;;18.00;100.00;99600.16;5087434;28;20686;-80
2022/06/12 00:46:59;;;;;;;6.10;4.30;;;;;;;17.93;100.00;99598.16;5089958;28;20192;-80
2022/06/12 00:49:31;;;;;;;5.03;4.53;;;;;;;17.88;100.00;99597.72;5028711;28;20204;-80
2022/06/12 00:52:04;;;;;;;4.97;4.00;;;;;;;17.92;100.00;99599.13;5026095;28;20193;-80
2022/06/12 00:54:40;;;;;;;7.67;4.23;;;;;;;18.01;100.00;99607.22;5023568;28;20355;-80
2022/06/12 00:57:14;;;;;;;6.37;4.20;;;;;;;17.99;100.00;99597.63;5029901;28;20407;-80
2022/06/12 00:59:46;;;;;;;6.93;4.70;;;;;;;17.94;100.00;99605.19;4991109;28;20191;-80
2022/06/12 01:02:19;;;;;;;7.40;4.23;;;;;;;17.97;100.00;99597.75;4990186;28;20226;-80
2022/06/12 01:07:38;;;;;;;6.13;4.57;;;;;;;17.93;100.00;99600.81;5057784;28;20199;-80
2022/06/12 01:10:13;;;;;;;6.10;4.73;;;;;;;17.72;100.00;99603.53;5092521;28;20334;-80
2022/06/12 01:12:49;;;;;;;9.03;4.63;;;;;;;17.65;100.00;99600.50;5090103;28;20296;-80
2022/06/12 01:15:26;;;;;;;6.17;4.10;;;;;;;17.65;100.00;99605.00;5086920;28;20274;-80
2022/06/12 01:17:56;;;;;;;5.20;4.23;;;;;;;17.71;100.00;99596.50;5092228;28;20368;-80
2022/06/12 01:20:28;;;;;;;6.53;4.37;;;;;;;17.61;100.00;99607.13;5087914;28;20199;-80
2022/06/12 01:23:30;;;;;;;5.17;4.67;;;;;;;17.57;100.00;99613.75;5085196;28;20199;-80
2022/06/12 01:26:32;;;;;;;10.00;4.97;;;;;;;17.46;100.00;99611.94;5091824;28;20203;-79
2022/06/12 01:29:08;;;;;;;5.70;4.50;;;;;;;17.33;100.00;99607.78;5088911;28;20201;-79
2022/06/12 01:31:46;;;;;;;7.70;4.73;;;;;;;17.21;100.00;99612.34;5120136;27;20235;-80
2022/06/12 01:34:32;;;;;;;6.63;4.90;;;;;;;17.19;100.00;99614.31;5130515;27;20204;-80
2022/06/12 01:37:14;;;;;;;6.90;4.90;;;;;;;17.03;100.00;99620.09;5134595;27;20197;-80
2022/06/12 01:39:47;;;;;;;7.90;4.40;;;;;;;16.92;100.00;99616.59;5134564;27;20214;-79
2022/06/12 01:42:26;;;;;;;8.50;5.07;;;;;;;16.85;100.00;99611.75;5129040;27;20203;-80
2022/06/12 01:45:07;;;;;;;6.50;4.30;;;;;;;16.87;100.00;99617.81;5131559;27;20217;-80
2022/06/12 01:47:50;;;;;;;7.70;4.60;;;;;;;17.09;100.00;99616.91;5128898;27;20194;-80
2022/06/12 01:50:24;;;;;;;5.53;4.30;;;;;;;17.11;100.00;99614.94;5126609;27;20198;-80
2022/06/12 01:53:01;;;;;;;7.50;5.00;;;;;;;17.14;100.00;99616.50;5129571;27;20209;-80
2022/06/12 01:55:38;;;;;;;6.83;4.70;;;;;;;17.05;100.00;99611.94;5130946;27;20294;-79
2022/06/12 01:58:13;;;;;;;6.47;4.60;;;;;;;17.06;100.00;99606.44;5134476;27;20213;-80
2022/06/12 02:00:49;;;;;;;6.03;4.43;;;;;;;17.06;100.00;99603.75;5125174;28;20190;-80
2022/06/12 02:03:25;;;;;;;5.80;4.33;;;;;;;16.96;100.00;99610.00;5134324;28;20227;-80
2022/06/12 02:05:59;;;;;;;7.67;5.07;;;;;;;16.68;100.00;99608.72;5134408;28;20189;-81
2022/06/12 02:08:34;;;;;;;10.00;5.47;;;;;;;16.61;100.00;99613.75;5132417;27;20194;-80
2022/06/12 02:13:55;;;;;;;7.07;5.20;;;;;;;16.44;100.00;99617.78;5137972;27;20230;-80
2022/06/12 02:16:29;;;;;;;5.97;5.00;;;;;;;16.29;100.00;99624.34;5138171;27;20216;-80
2022/06/12 02:19:00;;;;;;;8.43;5.60;;;;;;;16.43;100.00;99618.78;5135422;27;20218;-80
2022/06/12 02:21:34;;;;;;;6.90;4.60;;;;;;;16.29;100.00;99621.69;5136944;27;20274;-80
2022/06/12 02:24:08;;;;;;;7.33;5.97;;;;;;;16.24;100.00;99626.56;5137081;27;20222;-80
2022/06/12 02:26:43;;;;;;;8.00;5.70;;;;;;;16.18;100.00;99621.69;5138193;27;20206;-80
2022/06/12 02:29:18;;;;;;;8.67;5.57;;;;;;;16.25;100.00;99628.25;5136865;27;20190;-80
2022/06/12 02:31:53;;;;;;;8.17;5.57;;;;;;;16.18;100.00;99627.91;5134234;27;20237;-80
2022/06/12 02:34:27;;;;;;;8.70;5.73;;;;;;;16.01;100.00;99626.56;5134102;27;20238;-80
2022/06/12 02:37:00;;;;;;;7.77;5.90;;;;;;;16.15;100.00;99633.50;5137831;27;20217;-80
2022/06/12 02:39:33;;;;;;;8.73;5.80;;;;;;;16.31;100.00;99628.63;5136332;27;20214;-80
2022/06/12 02:42:05;;;;;;;7.50;5.83;;;;;;;16.30;100.00;99626.06;5132032;27;20202;-80
2022/06/12 02:44:40;;;;;;;8.30;5.97;;;;;;;16.31;100.00;99617.09;5137639;27;20337;-80
2022/06/12 02:47:14;;;;;;;6.63;5.73;;;;;;;16.42;100.00;99625.09;5137656;27;20206;-80
2022/06/12 02:49:46;;;;;;;7.00;5.27;;;;;;;16.56;100.00;99622.13;5137730;27;20190;-81
2022/06/12 02:52:22;;;;;;;10.50;5.67;;;;;;;16.55;100.00;99623.13;5129623;27;20234;-80
2022/06/12 02:55:04;;;;;;;8.43;5.70;;;;;;;16.66;100.00;99629.41;5131035;27;20194;-80
2022/06/12 02:57:39;;;;;;;7.37;5.60;;;;;;;16.65;100.00;99625.03;5137333;27;20191;-80
2022/06/12 03:00:14;;;;;;;7.53;5.53;;;;;;;16.64;100.00;99632.22;5093429;28;20215;-80
2022/06/12 03:02:54;;;;;;;7.37;5.40;;;;;;;16.56;100.00;99621.28;5092192;28;20195;-80
2022/06/12 03:05:26;;;;;;;9.67;6.00;;;;;;;16.72;100.00;99628.97;5089408;28;20274;-80
2022/06/12 03:08:00;;;;;;;6.93;5.30;;;;;;;16.68;100.00;99620.31;5090743;28;20188;-80
2022/06/12 03:10:32;;;;;;;8.00;5.80;;;;;;;16.82;100.00;99620.03;5096575;28;20248;-80
2022/06/12 03:13:02;;;;;;;9.00;5.63;;;;;;;16.66;100.00;99619.56;5089394;28;20207;-80
2022/06/12 03:15:37;;;;;;;6.93;5.00;;;;;;;16.39;100.00;99619.97;5091812;28;20199;-80
2022/06/12 03:18:13;;;;;;;6.87;5.00;;;;;;;16.49;100.00;99604.88;5109161;27;20196;-80
2022/06/12 03:20:55;;;;;;;8.00;5.47;;;;;;;16.46;100.00;99604.28;5130820;27;20202;-80
2022/06/12 03:23:32;;;;;;;5.63;5.10;;;;;;;16.47;100.00;99616.69;5134578;27;20205;-80
2022/06/12 03:26:04;;;;;;;8.73;5.63;;;;;;;16.40;100.00;99618.16;5131591;27;20197;-80
2022/06/12 03:28:39;;;;;;;8.90;5.83;;;;;;;16.39;100.00;99621.78;5136169;27;20191;-80
2022/06/12 03:31:16;;;;;;;8.53;5.60;;;;;;;16.31;100.00;99623.28;5129661;27;20700;-80
2022/06/12 03:33:57;;;;;;;8.13;5.67;;;;;;;16.26;100.00;99614.78;5133412;27;20281;-80
2022/06/12 03:36:32;;;;;;;8.30;5.90;;;;;;;16.10;100.00;99618.78;5132446;27;20660;-80
2022/06/12 03:39:12;;;;;;;9.30;5.20;;;;;;;16.13;100.00;99626.56;5129124;27;20274;-80
2022/06/12 03:41:53;;;;;;;8.33;5.73;;;;;;;15.79;100.00;99639.91;5136754;27;20193;-80
2022/06/12 03:44:26;;;;;;;7.77;5.67;;;;;;;15.65;100.00;99653.47;5134493;27;20198;-80
2022/06/12 03:46:59;;;;;;;8.33;5.77;;;;;;;15.72;100.00;99654.69;5136614;27;20278;-80
2022/06/12 03:49:34;;;;;;;6.90;5.57;;;;;;;15.84;100.00;99658.25;5132068;27;20363;-80
2022/06/12 03:52:14;;;;;;;6.40;5.10;;;;;;;15.88;100.00;99670.41;5136536;27;20652;-80
2022/06/12 03:54:48;;;;;;;7.40;5.50;;;;;;;15.81;100.00;99671.81;5107769;28;20195;-80
2022/06/12 04:00:13;;;;;;;7.53;5.90;;;;;;;16.07;100.00;99673.34;5113521;28;20221;-80
2022/06/12 04:02:46;;;;;;;7.63;5.17;;;;;;;16.02;100.00;99680.88;5113542;28;20220;-80
2022/06/12 04:05:21;;;;;;;7.77;5.43;;;;;;;15.95;100.00;99675.16;5111144;28;20241;-80
2022/06/12 04:07:54;;;;;;;7.73;5.20;;;;;;;16.11;100.00;99672.09;5108874;28;20250;-80
2022/06/12 04:10:26;;;;;;;6.67;5.57;;;;;;;16.21;100.00;99666.88;5110942;28;20199;-80
2022/06/12 04:12:55;;;;;;;6.17;5.40;;;;;;;16.11;100.00;99672.09;5114115;27;20209;-80
2022/06/12 04:15:29;;;;;;;5.90;5.20;;;;;;;16.21;100.00;99675.78;5134170;27;20281;-79
2022/06/12 04:17:58;;;;;;;9.17;5.70;;;;;;;16.16;100.00;99674.44;5133787;27;20214;-79
2022/06/12 04:20:36;;;;;;;7.33;5.70;;;;;;;16.12;100.00;99672.97;5130558;27;20206;-79
2022/06/12 04:23:10;;;;;;;8.43;5.50;;;;;;;16.29;100.00;99673.31;5133878;27;20186;-79
2022/06/12 04:25:44;;;;;;;9.53;6.30;;;;;;;15.93;100.00;99668.22;5136104;27;20202;-79
2022/06/12 04:28:27;;;;;;;6.83;5.40;;;;;;;16.11;100.00;99669.44;5133000;27;20194;-80
2022/06/12 04:30:56;;;;;;;7.23;5.57;;;;;;;16.20;100.00;99665.19;5129589;27;20198;-79
2022/06/12 04:33:45;;;;;;;7.53;5.90;;;;;;;16.31;100.00;99666.06;5133563;27;20655;-80
2022/06/12 04:36:15;;;;;;;10.17;6.67;;;;;;;16.34;100.00;99666.78;5132546;27;20201;-80
2022/06/12 04:38:44;;;;;;;11.97;6.20;;;;;;;16.37;100.00;99678.06;5129817;27;20653;-80
2022/06/12 04:41:21;;;;;;;9.03;5.90;;;;;;;16.18;100.00;99667.13;5134254;27;20293;-79
2022/06/12 04:43:49;;;;;;;6.37;5.67;;;;;;;16.36;100.00;99660.34;5135727;27;20198;-79
2022/06/12 04:46:20;;;;;;;7.57;5.67;;;;;;;16.44;100.00;99663.25;5128964;27;20191;-79
2022/06/12 04:48:51;;;;;;;8.27;5.67;;;;;;;16.26;100.00;99662.03;5134965;27;20202;-79
2022/06/12 04:51:21;;;;;;;10.50;6.03;;;;;;;16.33;100.00;99660.59;5135521;27;20309;-79
2022/06/12 04:53:52;;;;;;;10.63;6.10;;;;;;;16.34;100.00;99664.13;5130164;27;20280;-79
2022/06/12 04:56:27;;;;;;;11.97;6.13;;;;;;;16.30;100.00;99668.81;5129644;27;20660;-79
2022/06/12 04:58:56;;;;;;;8.67;5.93;;;;;;;16.31;100.00;99668.75;5133378;27;20190;-79
2022/06/12 05:01:25;;;;;;;7.63;6.20;;;;;;;16.35;100.00;99666.66;5134952;27;20248;-80
2022/06/12 05:03:57;;;;;;;7.80;6.00;;;;;;;16.49;100.00;99668.22;5130771;27;20194;-80
2022/06/12 05:06:29;;;;;;;9.73;6.13;;;;;;;16.50;100.00;99668.13;5134115;27;20199;-80
2022/06/12 05:08:59;;;;;;;7.70;6.57;;;;;;;16.47;100.00;99665.66;5131265;27;20206;-79
2022/06/12 05:11:27;;;;;;;10.40;6.10;;;;;;;16.75;100.00;99655.44;5134601;27;20198;-80
2022/06/12 05:13:57;;;;;;;8.50;6.03;;;;;;;16.91;100.00;99668.44;5091963;27;20203;-81
2022/06/12 05:16:31;;;;;;;7.17;5.80;;;;;;;16.98;100.00;99661.56;5129213;27;20209;-80
2022/06/12 05:19:00;;;;;;;9.07;6.10;;;;;;;16.93;100.00;99659.28;5134766;27;20272;-80
2022/06/12 05:21:32;;;;;;;9.37;5.63;;;;;;;17.10;100.00;99668.63;5134583;27;20285;-80
2022/06/12 05:24:01;;;;;;;6.33;5.50;;;;;;;17.24;100.00;99660.28;5130968;27;20191;-80
2022/06/12 05:26:33;;;;;;;8.03;6.23;;;;;;;17.20;100.00;99664.19;5131493;27;20202;-79
2022/06/12 05:29:04;;;;;;;7.57;5.80;;;;;;;17.48;100.00;99668.09;5127698;27;20198;-81
2022/06/12 05:31:33;;;;;;;7.67;4.23;;;;;;;17.62;100.00;99672.28;5133038;27;20214;-80
2022/06/12 05:34:01;;;;;;;6.33;4.23;;;;;;;17.82;100.00;99666.09;5132265;27;20205;-80
2022/06/12 05:36:31;;;;;;;5.27;4.10;;;;;;;17.75;100.00;99670.25;5134259;27;20213;-80
2022/06/12 05:39:00;;;;;;;6.20;4.00;;;;;;;17.86;100.00;99667.53;5127799;27;20190;-80
2022/06/12 05:41:28;;;;;;;6.90;3.87;;;;;;;17.92;100.00;99669.66;5134190;27;20210;-80
2022/06/12 05:43:57;;;;;;;6.70;4.00;;;;;;;17.99;100.00;99668.16;5129293;27;20190;-80
2022/06/12 05:46:26;;;;;;;8.70;4.27;;;;;;;18.03;100.00;99674.94;5133113;27;20190;-80
2022/06/12 05:48:55;;;;;;;4.87;3.90;;;;;;;18.23;100.00;99667.84;5131572;27;20186;-79
2022/06/12 05:51:24;;;;;;;7.27;4.00;;;;;;;18.25;100.00;99665.91;5134180;27;20186;-80
2022/06/12 05:53:55;;;;;;;5.47;3.77;;;;;;;18.21;100.00;99656.41;5135206;27;20189;-81
2022/06/12 05:56:25;;;;;;;5.53;3.37;;;;;;;18.37;100.00;99655.94;5131548;27;20182;-81
2022/06/12 05:58:53;;;;;;;4.70;3.60;;;;;;;18.54;100.00;99652.59;5133344;27;20197;-80
2022/06/12 06:01:24;;;;;;;6.03;3.40;;;;;;;18.46;100.00;99654.25;5134027;28;20226;-80
2022/06/12 06:03:53;;;;;;;5.97;3.47;;;;;;;18.51;100.00;99636.75;5128594;28;20198;-80
2022/06/12 06:06:26;;;;;;;7.27;3.40;;;;;;;18.47;100.00;99637.19;5131169;28;20197;-80
2022/06/12 06:09:04;;;;;;;5.27;3.40;;;;;;;18.53;100.00;99636.63;5131520;28;20202;-81
2022/06/12 06:11:33;;;;;;;7.13;3.77;;;;;;;18.50;100.00;99640.41;5131454;28;20193;-80
2022/06/12 06:14:01;;;;;;;7.07;3.60;;;;;;;18.67;100.00;99633.59;5130190;28;20209;-80
2022/06/12 06:16:30;;;;;;;4.93;3.60;;;;;;;18.67;100.00;99632.75;5133996;28;20209;-80
2022/06/12 06:18:59;;;;;;;5.73;3.60;;;;;;;18.73;100.00;99638.41;5133926;28;20195;-80
2022/06/12 06:21:30;;;;;;;6.47;3.70;;;;;;;18.93;100.00;99635.75;5134098;28;20214;-81
2022/06/12 06:23:58;;;;;;;5.17;3.40;;;;;;;18.74;100.00;99640.09;5130041;28;20251;-80
2022/06/12 06:26:28;;;;;;;4.97;3.23;;;;;;;18.99;100.00;99633.34;5130911;28;20186;-80
2022/06/12 06:28:57;;;;;;;6.63;3.33;;;;;;;19.07;100.00;99633.50;5132902;28;20274;-80
2022/06/12 06:31:27;;;;;;;5.20;3.23;;;;;;;19.21;100.00;99640.31;5131440;28;20226;-80
2022/06/12 06:33:56;;;;;;;7.07;3.10;;;;;;;19.33;100.00;99636.47;5067178;28;20284;-81
2022/06/12 06:36:26;;;;;;;4.27;3.10;;;;;;;19.44;100.00;99636.31;5063444;28;20318;-80
2022/06/12 06:38:56;;;;;;;4.73;2.90;;;;;;;19.56;100.00;99633.50;5066840;28;20207;-80
2022/06/12 06:41:26;;;;;;;8.27;3.30;;;;;;;19.63;100.00;99632.78;5060424;28;20220;-80
2022/06/12 06:46:42;;;;;;;7.97;2.97;;;;;;;19.80;100.00;99641.13;5070549;28;20204;-80
2022/06/12 06:49:18;;;;;;;4.80;2.97;;;;;;;19.92;100.00;99629.19;5067512;28;20188;-80
2022/06/12 06:51:47;;;;;;;5.87;3.20;;;;;;;20.12;100.00;99629.97;5093962;28;20206;-80
2022/06/12 06:54:15;;;;;;;5.83;3.00;;;;;;;20.25;100.00;99630.47;5133283;27;20269;-81
2022/06/12 06:56:44;;;;;;;6.33;3.17;;;;;;;20.39;100.00;99631.84;5137300;27;20198;-80
2022/06/12 06:59:13;;;;;;;5.73;2.77;;;;;;;20.23;100.00;99627.09;5129911;27;20361;-80
2022/06/12 07:01:42;;;;;;;5.53;3.40;;;;;;;19.91;100.00;99620.28;5133842;27;20719;-80
2022/06/12 07:04:10;;;;;;;6.53;2.60;;;;;;;20.18;100.00;99621.31;5136274;27;20206;-80
2022/06/12 07:06:39;;;;;;;5.57;2.60;;;;;;;20.43;100.00;99617.94;5137577;27;20205;-81
2022/06/12 07:09:07;;;;;;;5.47;2.73;;;;;;;20.76;100.00;99613.81;5133740;27;20206;-80
2022/06/12 07:11:36;;;;;;;6.30;2.77;;;;;;;20.66;100.00;99618.41;5137393;27;20196;-80
2022/06/12 07:14:04;;;;;;;8.25;2.85;;;;;;;20.90;100.00;99616.97;5094125;27;20202;-80
2022/06/12 07:16:40;;;;;;;9.07;3.10;;;;;;;20.76;100.00;99618.34;5134675;27;20197;-80
2022/06/12 07:19:09;;;;;;;9.47;2.57;;;;;;;21.05;100.00;99616.28;5134831;27;20205;-80
2022/06/12 07:21:37;;;;;;;5.10;2.95;;;;;;;21.18;100.00;99615.03;5137747;27;20248;-80
2022/06/12 07:24:08;;;;;;;7.32;3.05;;;;;;;20.98;100.00;99617.88;5128760;27;20198;-80
2022/06/12 07:26:41;;;;;;;6.27;2.50;;;;;;;21.04;100.00;99619.13;5137124;27;20198;-80
2022/06/12 07:29:11;;;;;;;5.33;2.30;;;;;;;21.02;100.00;99621.97;5136794;27;20202;-80
2022/06/12 07:31:42;;;;;;;6.05;2.75;;;;;;;21.01;100.00;99614.03;5136758;27;20226;-80
2022/06/12 07:34:12;;;;;;;5.47;2.53;;;;;;;21.22;100.00;99616.41;5137088;27;20213;-81
2022/06/12 07:36:46;;;;;;;6.90;2.85;;;;;;;21.08;100.00;99607.88;5089882;28;20665;-80
2022/06/12 07:39:18;;;;;;;7.45;2.70;;;;;;;21.10;100.00;99613.13;5085831;28;20207;-80
2022/06/12 07:41:49;;;;;;;4.13;2.50;;;;;;;21.42;100.00;99609.88;5090797;28;20334;-80
2022/06/12 07:44:20;;;;;;;7.05;2.50;;;;;;;21.70;100.00;99614.13;5091055;28;20199;-80
2022/06/12 07:46:53;;;;;;;7.55;2.85;;;;;;;21.82;100.00;99612.03;5088930;28;20662;-81
2022/06/12 07:49:22;;;;;;;6.60;2.58;;;;;;;21.92;100.00;99606.53;5086303;28;20206;-80
2022/06/12 07:51:52;;;;;;;4.63;2.22;;;;;;;22.06;100.00;99605.94;5093768;28;20219;-80
2022/06/12 07:54:21;;;;;;;6.20;2.47;;;;;;;21.48;100.00;99609.25;5100533;27;20204;-80
2022/06/12 07:56:50;;;;;;;6.93;2.92;;;;;;;21.81;100.00;99610.34;5132598;27;20198;-81
2022/06/12 07:59:19;;;;;;;5.95;2.53;;;;;;;21.89;100.00;99609.53;5135497;27;20638;-80
2022/06/12 08:01:48;;;;;;;7.20;2.42;;;;;;;22.19;100.00;99598.25;5136590;27;20625;-80
2022/06/12 08:04:18;;;;;;;8.18;2.38;;;;;;;22.40;100.00;99605.13;5136675;27;20214;-81
2022/06/12 08:06:46;;;;;;;3.97;2.22;;;;;;;22.49;100.00;99601.44;5129954;27;20187;-80
2022/06/12 08:09:16;;;;;;;5.10;2.42;;;;;;;22.46;100.00;99597.19;5127755;27;20220;-81
2022/06/12 08:11:48;;;;;;;11.35;3.15;;;;;;;22.65;100.00;99608.72;5136135;27;20198;-80
2022/06/12 08:14:18;;;;;;;6.90;2.70;;;;;;;22.54;100.00;99615.28;5136203;27;20269;-79
2022/06/12 08:16:47;;;;;;;5.90;2.47;;;;;;;22.63;100.00;99610.75;5135044;27;20186;-80
2022/06/12 08:22:06;;;;;;;4.50;2.17;;;;;;;22.65;100.00;99614.97;5135887;27;20297;-80
2022/06/12 08:24:35;;;;;;;6.53;2.67;;;;;;;22.63;100.00;99611.59;5136100;27;20222;-80
2022/06/12 08:27:04;;;;;;;8.32;2.60;;;;;;;22.90;100.00;99613.22;5130754;27;20198;-79
2022/06/12 08:29:33;;;;;;;8.35;2.60;;;;;;;23.00;100.00;99615.78;5134738;27;20194;-80
2022/06/12 08:32:05;;;;;;;8.25;2.55;;;;;;;23.13;100.00;99606.16;5135406;27;20214;-80
2022/06/12 08:34:39;;;;;;;5.97;2.20;;;;;;;23.00;100.00;99616.63;5132966;27;20259;-80
2022/06/12 08:37:14;;;;;;;6.78;2.50;;;;;;;23.11;100.00;99615.44;5134915;27;20274;-79
2022/06/12 08:39:42;;;;;;;9.65;2.60;;;;;;;22.84;100.00;99611.16;5135542;27;20194;-79
2022/06/12 08:42:16;;;;;;;5.88;2.28;;;;;;;22.73;100.00;99603.34;5134150;27;20259;-80
2022/06/12 08:44:51;;;;;;;6.53;2.58;;;;;;;23.23;100.00;99607.84;5135407;27;20222;-80
2022/06/12 08:47:29;;;;;;;6.38;2.35;;;;;;;23.54;100.00;99602.59;5133179;27;20269;-80
2022/06/12 08:50:04;;;;;;;4.38;2.08;;;;;;;23.25;100.00;99605.81;5135545;27;20206;-80
2022/06/12 08:52:38;;;;;;;5.65;2.17;;;;;;;23.28;100.00;99602.78;5133877;27;20193;-80
2022/06/12 08:55:15;;;;;;;7.10;2.50;;;;;;;22.59;100.00;99604.84;5135161;27;20194;-80
2022/06/12 08:57:52;;;;;;;5.80;2.25;;;;;;;22.99;100.00;99600.56;5135139;27;20280;-80
2022/06/12 09:00:23;;;;;;;7.35;2.47;;;;;;;23.27;100.00;99595.69;5133840;27;20218;-80
2022/06/12 09:02:52;;;;;;;7.20;2.38;;;;;;;23.22;100.00;99595.34;5132110;27;20246;-80
2022/06/12 09:05:26;;;;;;;4.93;1.95;;;;;;;23.55;100.00;99591.63;5131384;27;20190;-80
2022/06/12 09:08:01;;;;;;;4.30;2.10;;;;;;;23.99;100.00;99585.81;5133477;27;20279;-80
2022/06/12 09:10:37;;;;;;;11.05;2.85;;;;;;;24.12;100.00;99579.84;5134849;27;20221;-80
2022/06/12 09:13:16;;;;;;;6.05;1.80;;;;;;;24.00;100.00;99582.09;5134636;27;20194;-80
2022/06/12 09:15:51;;;;;;;5.50;2.20;;;;;;;24.06;100.00;99584.09;5133281;27;20202;-79
2022/06/12 09:18:36;;;;;;;7.72;2.17;;;;;;;23.99;100.00;99573.13;5133744;27;20193;-79
2022/06/12 09:21:11;;;;;;;4.40;2.05;;;;;;;23.35;100.00;99568.63;5134767;27;20190;-79
2022/06/12 09:23:48;;;;;;;3.03;1.83;;;;;;;23.75;100.00;99570.50;5129037;27;20213;-80
2022/06/12 09:26:23;;;;;;;3.83;1.60;;;;;;;23.94;98.13;99575.53;5115765;27;20194;-79
2022/06/12 09:29:01;;;;;;;4.07;1.95;;;;;;;24.10;94.78;99577.31;5130142;27;20222;-80
2022/06/12 09:31:37;;;;;;;5.90;2.13;;;;;;;23.97;98.47;99564.34;5134418;27;20226;-80
2022/06/12 09:34:15;;;;;;;4.22;1.73;;;;;;;24.01;100.00;99569.38;5129487;27;20205;-80
2022/06/12 09:37:01;;;;;;;5.97;1.95;;;;;;;24.29;91.27;99559.81;5132406;27;20186;-80
2022/06/12 09:40:05;;;;;;;3.55;1.98;;;;;;;24.34;93.59;99562.88;5134593;27;20198;-80
2022/06/12 09:42:50;;;;;;;3.33;1.55;;;;;;;24.62;93.36;99557.81;5081569;27;20428;-79
2022/06/12 09:45:27;;;;;;;3.92;1.75;;;;;;;24.30;96.83;99552.53;5131935;27;20190;-79
2022/06/12 09:48:07;;;;;;;4.00;1.77;;;;;;;23.74;99.65;99562.53;5132238;27;20182;-79
2022/06/12 09:50:42;;;;;;;5.43;1.92;;;;;;;24.27;96.50;99554.56;5129637;27;20198;-80
2022/06/12 09:53:32;;;;;;;4.93;2.03;;;;;;;24.72;90.77;99547.59;5126440;27;20277;-79
2022/06/12 09:56:05;;;;;;;5.55;1.67;;;;;;;24.76;91.43;99550.78;5128639;27;20194;-80
2022/06/12 09:58:39;;;;;;;4.97;1.73;;;;;;;24.37;93.48;99548.97;5127937;27;20637;-80
2022/06/12 10:01:12;;;;;;;4.10;1.50;;;;;;;24.13;87.85;99555.31;5128301;28;20202;-80
2022/06/12 10:03:46;;;;;;;2.67;1.50;;;;;;;24.39;86.83;99533.38;5133547;28;20206;-79
2022/06/12 10:06:23;;;;;;;4.10;1.73;;;;;;;25.22;89.75;99532.66;5134511;28;20186;-80
2022/06/12 10:08:59;;;;;;;3.85;2.10;;;;;;;24.63;88.45;99534.28;5130644;28;20194;-80
2022/06/12 10:11:33;;;;;;;4.93;1.67;;;;;;;25.43;91.04;99539.25;5132582;28;20682;-80
2022/06/12 10:14:09;;;;;;;5.00;1.77;;;;;;;25.92;86.79;99540.44;5131102;28;20209;-80
2022/06/12 10:16:42;;;;;;;6.38;2.15;;;;;;;25.74;71.84;99528.25;5130772;28;20197;-81
2022/06/12 10:19:34;;;;;;;5.40;2.08;;;;;;;25.52;74.97;99530.00;5134731;28;20198;-80
2022/06/12 10:22:08;;;;;;;5.53;1.98;;;;;;;25.81;77.81;99529.22;5131380;28;20205;-80
2022/06/12 10:24:36;;;;;;;5.40;2.00;;;;;;;25.76;74.18;99526.19;5138959;28;20284;-80
2022/06/12 10:27:10;;;;;;;4.30;1.77;;;;;;;25.46;80.86;99520.72;5133171;28;20202;-80
2022/06/12 10:29:45;;;;;;;4.57;1.80;;;;;;;24.80;82.86;99519.56;5136904;27;20238;-80
2022/06/12 10:32:18;;;;;;;3.90;1.80;;;;;;;25.51;81.81;99521.03;5139515;27;20304;-80
2022/06/12 10:34:47;;;;;;;4.32;1.70;;;;;;;25.91;73.19;99516.19;5139079;27;20194;-80
2022/06/12 10:37:19;;;;;;;3.55;1.50;;;;;;;26.32;64.99;99515.66;5137639;27;20198;-80
2022/06/12 10:40:01;;;;;;;3.78;1.52;;;;;;;26.31;66.71;99513.97;5134646;27;20201;-80
2022/06/12 10:42:44;;;;;;;4.88;1.50;;;;;;;26.69;66.90;99501.06;5138505;27;20198;-81
2022/06/12 10:45:22;;;;;;;3.25;1.50;;;;;;;26.85;67.43;99506.25;5140294;27;20191;-80
2022/06/12 10:47:53;;;;;;;4.53;1.80;;;;;;;26.53;67.60;99494.81;5140469;27;20197;-81
2022/06/12 10:50:28;;;;;;;5.40;2.00;;;;;;;25.36;68.63;99509.28;5133924;27;20225;-81
2022/06/12 10:53:03;;;;;;;3.25;1.40;;;;;;;25.19;62.76;99511.34;5138700;27;20301;-81
2022/06/12 10:55:43;;;;;;;3.17;1.27;;;;;;;25.01;59.49;99505.38;5139787;27;20209;-80
2022/06/12 10:58:44;;;;;;;3.67;1.58;;;;;;;25.50;58.24;99510.34;5140650;27;20254;-80
2022/06/12 11:01:19;;;;;;;3.42;1.35;;;;;;;25.66;56.26;99497.44;5138392;27;20269;-81
2022/06/12 11:04:01;;;;;;;2.28;1.33;;;;;;;25.15;57.98;99503.75;5134920;27;20221;-80
2022/06/12 11:06:38;;;;;;;4.00;1.40;;;;;;;25.65;60.57;99493.03;5136916;27;20198;-80
2022/06/12 11:09:18;;;;;;;3.60;1.23;;;;;;;25.93;48.72;99489.69;5137238;27;20186;-80
2022/06/12 11:12:09;;;;;;;3.45;1.58;;;;;;;26.57;50.02;99484.44;5136729;27;20213;-80
2022/06/12 11:14:51;;;;;;;2.65;1.10;;;;;;;26.98;47.65;99481.88;5135586;27;20195;-81
2022/06/12 11:17:38;;;;;;;2.45;1.10;;;;;;;27.40;47.19;99477.41;5137462;27;20277;-80
2022/06/12 11:20:22;;;;;;;4.32;1.50;;;;;;;26.07;52.56;99486.13;5135963;27;20661;-80
2022/06/12 11:23:03;;;;;;;2.58;1.38;;;;;;;26.99;49.52;99480.84;5134397;27;20229;-80
2022/06/12 11:26:06;;;;;;;2.38;1.20;;;;;;;27.53;48.73;99469.38;5137842;27;20198;-80
2022/06/12 11:28:50;;;;;;;1.65;1.05;;;;;;;27.37;44.96;99470.50;5137023;27;20194;-81
2022/06/12 11:31:34;;;;;;;2.25;1.20;;;;;;;27.57;43.90;99475.25;5137258;27;20234;-80
2022/06/12 11:34:21;;;;;;;2.67;1.20;;;;;;;27.39;41.10;99465.69;5136168;27;20204;-80
2022/06/12 11:36:58;;;;;;;2.55;1.13;;;;;;;28.14;41.50;99482.25;5136711;27;20191;-81
2022/06/12 11:39:43;;;;;;;4.70;1.20;;;;;;;27.56;43.47;99468.97;5074064;28;20270;-80
2022/06/12 11:42:28;;;;;;;2.40;1.10;;;;;;;27.35;38.45;99461.72;5071477;28;20193;-81
2022/06/12 11:45:09;;;;;;;3.47;1.20;;;;;;;27.42;32.57;99469.09;5063262;28;20224;-81
2022/06/12 11:48:08;;;;;;;1.70;1.10;;;;;;;27.41;33.17;99472.81;5073529;28;20358;-81
2022/06/12 11:50:40;;;;;;;1.98;0.88;;;;;;;27.92;38.92;99467.94;5072208;28;20188;-81
2022/06/12 11:53:23;;;;;;;2.20;0.90;;;;;;;27.67;35.78;99459.41;5067125;28;20323;-80
2022/06/12 11:55:56;;;;;;;2.58;0.88;;;;;;;27.77;38.45;99467.22;5065761;28;20196;-80
2022/06/12 11:58:41;;;;;;;5.10;1.10;;;;;;;27.38;36.87;99464.03;5123693;27;20190;-80
2022/06/12 12:01:18;;;;;;;2.55;1.20;;;;;;;26.48;37.50;99461.13;5128584;27;20277;-80
2022/06/12 12:04:13;;;;;;;3.15;1.10;;;;;;;26.64;38.64;99470.94;5132084;27;20225;-80
2022/06/12 12:06:57;;;;;;;3.45;1.23;;;;;;;27.51;39.00;99462.44;5070314;28;20191;-80
2022/06/12 12:09:39;;;;;;;2.75;1.17;;;;;;;27.10;37.98;99441.44;5066975;28;20256;-81
2022/06/12 12:12:13;;;;;;;2.75;1.20;;;;;;;26.14;41.61;99461.75;5065517;28;20279;-83
2022/06/12 12:14:44;;;;;;;4.85;1.33;;;;;;;26.13;43.77;99454.66;5070039;28;20192;-80